createdAt,value
2017-06-04T00:00:23.590Z,51
2017-06-04T00:02:05.325Z,51
2017-06-04T00:04:05.634Z,51
2017-06-04T00:06:07.884Z,50.9
2017-06-04T00:08:05.617Z,50.9
2017-06-04T00:10:05.469Z,51
2017-06-04T00:12:05.355Z,51
2017-06-04T00:14:05.037Z,51
2017-06-04T00:16:07.902Z,50.9
2017-06-04T00:18:05.862Z,51
2017-06-04T00:20:05.592Z,51
2017-06-04T00:22:08.050Z,50.9
2017-06-04T00:24:05.743Z,50.9
2017-06-04T00:26:10.526Z,50.7
2017-06-04T00:28:06.086Z,50.7
2017-06-04T00:30:05.892Z,50.9
2017-06-04T00:32:05.580Z,50.9
2017-06-04T00:34:05.360Z,50.8
2017-06-04T00:36:05.047Z,50.7
2017-06-04T00:38:05.743Z,50.9
2017-06-04T00:40:08.070Z,50.7
2017-06-04T00:42:05.282Z,50.7
2017-06-04T00:44:08.496Z,50.7
2017-06-04T00:46:07.718Z,50.7
2017-06-04T00:48:05.394Z,50.9
2017-06-04T00:50:05.124Z,50.7
2017-06-04T00:52:05.369Z,50.7
2017-06-04T00:54:05.085Z,50.6
2017-06-04T00:56:05.779Z,50.6
2017-06-04T00:58:05.551Z,50.8
2017-06-04T01:00:05.234Z,50.6
2017-06-04T01:02:05.421Z,50.6
2017-06-04T01:04:05.217Z,50.6
2017-06-04T01:06:08.518Z,50.6
2017-06-04T01:08:05.236Z,50.6
2017-06-04T01:10:05.691Z,50.7
2017-06-04T01:12:05.362Z,50.7
2017-06-04T01:14:05.050Z,50.7
2017-06-04T01:16:05.720Z,50.8
2017-06-04T01:18:05.577Z,50.8
2017-06-04T01:20:07.766Z,50.8
2017-06-04T01:22:05.436Z,50.8
2017-06-04T01:24:05.137Z,50.8
2017-06-04T01:26:05.986Z,50.8
2017-06-04T01:28:07.747Z,50.9
2017-06-04T01:30:10.508Z,51
2017-06-04T01:32:07.693Z,51
2017-06-04T01:34:06.066Z,51
2017-06-04T01:36:05.848Z,51
2017-06-04T01:38:05.091Z,50.8
2017-06-04T01:40:06.152Z,51
2017-06-04T01:42:05.902Z,51.1
2017-06-04T01:44:08.149Z,50
2017-06-04T01:46:06.032Z,50
2017-06-04T01:48:05.282Z,49.9
2017-06-04T01:50:05.566Z,49.7
2017-06-04T01:52:05.895Z,49.6
2017-06-04T01:54:08.126Z,49.3
2017-06-04T01:56:05.808Z,49.3
2017-06-04T01:58:05.667Z,49.2
2017-06-04T02:00:07.838Z,48.9
2017-06-04T02:02:08.017Z,49
2017-06-04T02:04:05.746Z,49
2017-06-04T02:06:05.592Z,49
2017-06-04T02:08:10.414Z,48.8
2017-06-04T02:10:07.776Z,48.7
2017-06-04T02:12:13.081Z,48.6
2017-06-04T02:14:06.123Z,48.6
2017-06-04T02:16:08.565Z,48.5
2017-06-04T02:18:05.468Z,48.3
2017-06-04T02:20:05.294Z,48.4
2017-06-04T02:22:12.781Z,48.4
2017-06-04T02:24:06.009Z,48.4
2017-06-04T02:26:05.760Z,48.5
2017-06-04T02:28:05.565Z,48.4
2017-06-04T02:30:10.361Z,48.5
2017-06-04T02:32:10.226Z,48.5
2017-06-04T02:34:05.928Z,48.5
2017-06-04T02:36:05.704Z,48.8
2017-06-04T02:38:07.962Z,48.8
2017-06-04T02:40:05.794Z,48.6
2017-06-04T02:42:05.503Z,48.7
2017-06-04T02:44:05.221Z,48.8
2017-06-04T02:46:06.280Z,48.9
2017-06-04T02:48:05.986Z,48.6
2017-06-04T02:50:05.667Z,48.5
2017-06-04T02:52:05.468Z,48.9
2017-06-04T02:54:05.149Z,48.7
2017-06-04T02:56:05.835Z,48.8
2017-06-04T02:58:05.184Z,48.8
2017-06-04T03:00:05.838Z,48.8
2017-06-04T03:02:05.521Z,48.8
2017-06-04T03:04:05.271Z,48.9
2017-06-04T03:06:05.931Z,49
2017-06-04T03:08:05.288Z,49
2017-06-04T03:10:06.027Z,48.8
2017-06-04T03:12:05.863Z,49
2017-06-04T03:14:05.631Z,49
2017-06-04T03:16:05.694Z,48.9
2017-06-04T03:18:08.168Z,49
2017-06-04T03:20:05.871Z,49
2017-06-04T03:22:13.205Z,49.2
2017-06-04T03:24:08.452Z,49
2017-06-04T03:26:05.660Z,49.2
2017-06-04T03:28:05.360Z,49
2017-06-04T03:30:05.053Z,48.8
2017-06-04T03:32:05.727Z,49
2017-06-04T03:34:05.502Z,48.9
2017-06-04T03:36:05.229Z,49.1
2017-06-04T03:38:06.020Z,49
2017-06-04T03:40:06.511Z,48.8
2017-06-04T03:42:05.230Z,48.9
2017-06-04T03:44:05.921Z,49
2017-06-04T03:46:05.153Z,49.1
2017-06-04T03:48:05.952Z,48.8
2017-06-04T03:50:05.873Z,48.8
2017-06-04T03:52:05.600Z,49.1
2017-06-04T03:54:05.291Z,48.6
2017-06-04T03:56:05.978Z,48.8
2017-06-04T03:58:08.242Z,48.8
2017-06-04T04:00:05.974Z,48.9
2017-06-04T04:02:05.701Z,48.7
2017-06-04T04:04:10.229Z,48.2
2017-06-04T04:06:05.956Z,48.2
2017-06-04T04:08:08.165Z,48.2
2017-06-04T04:10:08.736Z,48.1
2017-06-04T04:12:05.472Z,48.1
2017-06-04T04:14:07.757Z,47.7
2017-06-04T04:16:05.987Z,47.7
2017-06-04T04:18:13.493Z,47.7
2017-06-04T04:20:05.225Z,47.5
2017-06-04T04:22:11.786Z,47.6
2017-06-04T04:24:15.648Z,47.7
2017-06-04T04:26:05.325Z,47.7
2017-06-04T04:28:05.776Z,47.6
2017-06-04T04:30:05.023Z,47.6
2017-06-04T04:32:05.734Z,47.3
2017-06-04T04:34:05.408Z,47.2
2017-06-04T04:36:12.677Z,47.3
2017-06-04T04:38:08.012Z,47.3
2017-06-04T04:40:05.758Z,47.3
2017-06-04T04:42:07.952Z,47
2017-06-04T04:44:05.209Z,47
2017-06-04T04:46:06.680Z,47.2
2017-06-04T04:48:05.942Z,47
2017-06-04T04:50:05.660Z,47.1
2017-06-04T04:52:11.380Z,46.9
2017-06-04T04:54:09.076Z,46.9
2017-06-04T04:56:10.394Z,46.8
2017-06-04T04:58:05.480Z,46.8
2017-06-04T05:00:05.777Z,46.9
2017-06-04T05:02:05.636Z,46.8
2017-06-04T05:04:05.496Z,46.7
2017-06-04T05:06:05.168Z,46.8
2017-06-04T05:08:05.936Z,46.6
2017-06-04T05:10:05.311Z,46.4
2017-06-04T05:12:08.589Z,46.4
2017-06-04T05:14:05.330Z,46.4
2017-06-04T05:16:05.421Z,46.1
2017-06-04T05:18:05.341Z,46.2
2017-06-04T05:20:13.262Z,46
2017-06-04T05:22:06.164Z,46.3
2017-06-04T05:24:05.870Z,46.2
2017-06-04T05:26:05.243Z,46
2017-06-04T05:28:08.498Z,46.3
2017-06-04T05:30:05.235Z,46.3
2017-06-04T05:32:06.055Z,46.2
2017-06-04T05:34:10.831Z,45.8
2017-06-04T05:36:05.476Z,45.8
2017-06-04T05:38:07.679Z,45.8
2017-06-04T05:40:05.749Z,45.7
2017-06-04T05:42:08.564Z,45.9
2017-06-04T05:44:05.291Z,45.9
2017-06-04T05:46:06.001Z,46.3
2017-06-04T05:48:05.683Z,46.5
2017-06-04T05:50:10.622Z,46.8
2017-06-04T05:52:05.367Z,46.8
2017-06-04T05:54:05.104Z,47
2017-06-04T05:56:05.457Z,47.2
2017-06-04T05:58:05.862Z,47.1
2017-06-04T06:00:05.588Z,47.3
2017-06-04T06:02:05.288Z,47.3
2017-06-04T06:04:06.000Z,47.6
2017-06-04T06:06:08.259Z,47.1
2017-06-04T06:08:06.002Z,47.1
2017-06-04T06:10:08.332Z,47.4
2017-06-04T06:12:05.013Z,47.5
2017-06-04T06:14:05.783Z,47.4
2017-06-04T06:16:05.701Z,47.5
2017-06-04T06:18:10.174Z,47.6
2017-06-04T06:20:08.399Z,47.5
2017-06-04T06:22:07.774Z,47.7
2017-06-04T06:24:13.076Z,47.6
2017-06-04T06:26:05.761Z,47.7
2017-06-04T06:28:08.024Z,47.6
2017-06-04T06:30:11.141Z,47.6
2017-06-04T06:32:08.373Z,47.6
2017-06-04T06:34:05.140Z,47.6
2017-06-04T06:36:05.965Z,47.2
2017-06-04T06:38:05.668Z,47.3
2017-06-04T06:40:07.936Z,47.4
2017-06-04T06:42:05.627Z,47.4
2017-06-04T06:44:10.959Z,47.3
2017-06-04T06:46:08.207Z,47.4
2017-06-04T06:48:08.431Z,47.3
2017-06-04T06:50:10.199Z,47
2017-06-04T06:52:06.116Z,47.2
2017-06-04T06:54:18.452Z,47.2
2017-06-04T06:56:15.296Z,47.4
2017-06-04T06:58:05.528Z,47.4
2017-06-04T07:00:05.271Z,47.2
2017-06-04T07:02:05.497Z,47.2
2017-06-04T07:04:07.881Z,47.1
2017-06-04T07:06:05.120Z,47
2017-06-04T07:08:05.417Z,47
2017-06-04T07:10:07.713Z,47.1
2017-06-04T07:12:06.034Z,47.1
2017-06-04T07:14:05.955Z,47.2
2017-06-04T07:16:05.862Z,47.4
2017-06-04T07:18:05.985Z,47.3
2017-06-04T07:20:08.193Z,47.1
2017-06-04T07:22:07.928Z,47.1
2017-06-04T07:24:05.651Z,47.1
2017-06-04T07:26:05.567Z,47.2
2017-06-04T07:28:05.276Z,47.2
2017-06-04T07:30:05.942Z,47.2
2017-06-04T07:32:05.658Z,47.2
2017-06-04T07:34:13.048Z,47.2
2017-06-04T07:36:05.208Z,47.2
2017-06-04T07:38:13.462Z,47.2
2017-06-04T07:40:08.611Z,47.4
2017-06-04T07:42:06.539Z,47.3
2017-06-04T07:44:05.219Z,47.3
2017-06-04T07:46:08.498Z,47.4
2017-06-04T07:48:05.264Z,47.5
2017-06-04T07:50:05.843Z,47.4
2017-06-04T07:52:05.721Z,47.4
2017-06-04T07:54:05.451Z,47.3
2017-06-04T07:56:07.681Z,47.3
2017-06-04T07:58:10.475Z,47.2
2017-06-04T08:00:10.267Z,47.4
2017-06-04T08:02:05.632Z,47.3
2017-06-04T08:04:06.035Z,47.6
2017-06-04T08:06:05.791Z,47.5
2017-06-04T08:08:05.514Z,47.5
2017-06-04T08:10:05.394Z,47.4
2017-06-04T08:12:05.165Z,47.3
2017-06-04T08:14:07.935Z,47.4
2017-06-04T08:16:05.772Z,47.3
2017-06-04T08:18:10.793Z,47.3
2017-06-04T08:20:13.096Z,47.1
2017-06-04T08:22:09.431Z,46.8
2017-06-04T08:24:05.629Z,46.8
2017-06-04T08:26:05.331Z,46.8
2017-06-04T08:28:05.106Z,46.7
2017-06-04T08:30:05.893Z,46.8
2017-06-04T08:32:05.581Z,46.9
2017-06-04T08:34:05.321Z,47
2017-06-04T08:36:05.182Z,47.1
2017-06-04T08:38:10.984Z,46.7
2017-06-04T08:40:06.026Z,46.7
2017-06-04T08:42:05.350Z,46.7
2017-06-04T08:44:05.107Z,46.7
2017-06-04T08:46:15.533Z,46.3
2017-06-04T08:48:05.281Z,46.2
2017-06-04T08:50:05.946Z,46.2
2017-06-04T08:52:10.285Z,46.6
2017-06-04T08:54:06.021Z,46.6
2017-06-04T08:56:05.665Z,46.6
2017-06-04T08:58:05.578Z,46.6
2017-06-04T09:00:05.465Z,46.4
2017-06-04T09:02:12.809Z,46.4
2017-06-04T09:04:05.568Z,46.4
2017-06-04T09:06:08.398Z,46.4
2017-06-04T09:08:05.116Z,46.4
2017-06-04T09:10:08.744Z,46.6
2017-06-04T09:12:06.012Z,46.4
2017-06-04T09:14:05.811Z,46.6
2017-06-04T09:16:05.649Z,46.6
2017-06-04T09:18:05.533Z,46.6
2017-06-04T09:20:13.073Z,46.6
2017-06-04T09:22:08.608Z,46.6
2017-06-04T09:24:05.313Z,46.6
2017-06-04T09:26:08.572Z,46.6
2017-06-04T09:28:05.314Z,46.6
2017-06-04T09:30:05.010Z,46.6
2017-06-04T09:32:10.750Z,46.6
2017-06-04T09:34:05.503Z,46.6
2017-06-04T09:36:06.317Z,46.6
2017-06-04T09:38:07.611Z,46.3
2017-06-04T09:40:12.871Z,46.2
2017-06-04T09:42:06.974Z,46.1
2017-06-04T09:44:05.667Z,46.4
2017-06-04T09:46:12.992Z,46.6
2017-06-04T09:48:05.871Z,46.6
2017-06-04T09:50:05.238Z,46.6
2017-06-04T09:52:05.995Z,46.6
2017-06-04T09:54:05.739Z,46.6
2017-06-04T09:56:05.468Z,46.6
2017-06-04T09:58:10.187Z,46.6
2017-06-04T10:00:13.528Z,46.6
2017-06-04T10:02:05.223Z,46.6
2017-06-04T10:04:06.722Z,46.6
2017-06-04T10:06:05.456Z,46.8
2017-06-04T10:08:05.243Z,46.8
2017-06-04T10:10:05.716Z,46.8
2017-06-04T10:12:05.973Z,46.8
2017-06-04T10:14:05.791Z,46.8
2017-06-04T10:16:05.523Z,46.8
2017-06-04T10:18:05.972Z,46.8
2017-06-04T10:20:10.727Z,46.8
2017-06-04T10:22:05.464Z,46.8
2017-06-04T10:24:05.249Z,46.8
2017-06-04T10:26:05.514Z,46.8
2017-06-04T10:28:05.282Z,46.8
2017-06-04T10:30:06.046Z,47
2017-06-04T10:32:05.749Z,47.1
2017-06-04T10:34:05.727Z,47.4
2017-06-04T10:36:05.434Z,47.4
2017-06-04T10:38:07.706Z,47.4
2017-06-04T10:40:05.409Z,47.4
2017-06-04T10:42:10.096Z,47.1
2017-06-04T10:44:05.793Z,47
2017-06-04T10:46:15.631Z,47.4
2017-06-04T10:48:05.344Z,47.4
2017-06-04T10:50:05.573Z,47.7
2017-06-04T10:52:05.322Z,47.6
2017-06-04T10:54:07.542Z,48.1
2017-06-04T10:56:10.311Z,47.6
2017-06-04T10:58:11.052Z,48
2017-06-04T11:00:10.831Z,47.9
2017-06-04T11:02:10.618Z,47.9
2017-06-04T11:04:05.402Z,47.9
2017-06-04T11:06:05.106Z,47.8
2017-06-04T11:08:05.790Z,47.6
2017-06-04T11:10:05.612Z,47.3
2017-06-04T11:12:10.338Z,47.6
2017-06-04T11:14:05.133Z,47.6
2017-06-04T11:16:05.867Z,47.5
2017-06-04T11:18:05.927Z,47.6
2017-06-04T11:20:05.746Z,47.5
2017-06-04T11:22:05.461Z,47.7
2017-06-04T11:24:05.218Z,47.8
2017-06-04T11:26:08.594Z,47.8
2017-06-04T11:28:05.312Z,47.8
2017-06-04T11:30:05.072Z,47.9
2017-06-04T11:32:05.934Z,47.9
2017-06-04T11:34:05.375Z,48
2017-06-04T11:36:05.098Z,48
2017-06-04T11:38:05.843Z,47.8
2017-06-04T11:40:05.572Z,47.7
2017-06-04T11:42:08.387Z,47.8
2017-06-04T11:44:05.271Z,47.7
2017-06-04T11:46:13.154Z,47.5
2017-06-04T11:48:10.412Z,47.6
2017-06-04T11:50:07.824Z,47.6
2017-06-04T11:52:05.554Z,47.6
2017-06-04T11:54:10.365Z,47.6
2017-06-04T11:56:05.142Z,47.6
2017-06-04T11:58:05.866Z,47.3
2017-06-04T12:00:05.623Z,47.4
2017-06-04T12:02:05.614Z,47.2
2017-06-04T12:04:05.880Z,47.1
2017-06-04T12:06:05.991Z,46.8
2017-06-04T12:08:05.991Z,46.5
2017-06-04T12:10:06.190Z,46.4
2017-06-04T12:12:05.597Z,46.4
2017-06-04T12:14:05.693Z,46.4
2017-06-04T12:16:05.877Z,46.4
2017-06-04T12:18:07.974Z,46.4
2017-06-04T12:20:08.321Z,46.4
2017-06-04T12:22:05.574Z,46.4
2017-06-04T12:24:08.375Z,46.4
2017-06-04T12:26:10.878Z,46.4
2017-06-04T12:28:10.801Z,46.4
2017-06-04T12:30:06.934Z,46.4
2017-06-04T12:32:08.125Z,46.4
2017-06-04T12:34:05.845Z,46.5
2017-06-04T12:36:05.526Z,46.4
2017-06-04T12:38:05.882Z,46.4
2017-06-04T12:40:05.727Z,46.4
2017-06-04T12:42:05.504Z,46.2
2017-06-04T12:44:07.825Z,46.4
2017-06-04T12:46:05.071Z,46.4
2017-06-04T12:48:06.799Z,46.2
2017-06-04T12:50:05.643Z,46.1
2017-06-04T12:52:05.358Z,45.7
2017-06-04T12:54:05.233Z,45.7
2017-06-04T12:56:06.114Z,45.6
2017-06-04T12:58:05.847Z,45.6
2017-06-04T13:00:05.587Z,45.3
2017-06-04T13:02:05.455Z,45.3
2017-06-04T13:04:05.671Z,45.1
2017-06-04T13:06:07.936Z,44.9
2017-06-04T13:08:08.218Z,45.1
2017-06-04T13:10:06.311Z,44.9
2017-06-04T13:12:05.989Z,44.9
2017-06-04T13:14:07.930Z,45
2017-06-04T13:16:05.591Z,44.8
2017-06-04T13:18:05.471Z,44.8
2017-06-04T13:20:05.220Z,44.7
2017-06-04T13:22:08.430Z,44.9
2017-06-04T13:24:07.703Z,45.2
2017-06-04T13:26:06.086Z,45.3
2017-06-04T13:28:08.325Z,45.2
2017-06-04T13:30:05.017Z,45.2
2017-06-04T13:32:05.266Z,45.1
2017-06-04T13:34:05.986Z,44.9
2017-06-04T13:36:05.653Z,45
2017-06-04T13:38:05.533Z,45
2017-06-04T13:40:05.283Z,44.9
2017-06-04T13:42:05.108Z,45
2017-06-04T13:44:05.509Z,44.8
2017-06-04T13:46:05.212Z,44.8
2017-06-04T13:48:10.507Z,44.9
2017-06-04T13:50:05.750Z,44.9
2017-06-04T13:52:05.453Z,45
2017-06-04T13:54:05.757Z,44.9
2017-06-04T13:56:05.624Z,44.8
2017-06-04T13:58:05.465Z,44.8
2017-06-04T14:00:07.813Z,44.8
2017-06-04T14:02:05.688Z,44.8
2017-06-04T14:04:05.385Z,45
2017-06-04T14:06:05.103Z,45.1
2017-06-04T14:08:08.377Z,45.1
2017-06-04T14:10:07.639Z,45.2
2017-06-04T14:12:05.467Z,45.1
2017-06-04T14:14:05.503Z,45.2
2017-06-04T14:16:05.201Z,45
2017-06-04T14:18:05.626Z,45.2
2017-06-04T14:20:05.538Z,45.3
2017-06-04T14:22:07.798Z,45
2017-06-04T14:24:05.517Z,45
2017-06-04T14:26:06.232Z,45
2017-06-04T14:28:08.535Z,44.8
2017-06-04T14:30:10.648Z,44.8
2017-06-04T14:32:08.261Z,44.6
2017-06-04T14:34:05.924Z,44.6
2017-06-04T14:36:07.693Z,44.5
2017-06-04T14:38:08.668Z,44.4
2017-06-04T14:40:05.940Z,44.4
2017-06-04T14:42:05.661Z,44.4
2017-06-04T14:44:05.489Z,44.3
2017-06-04T14:46:05.183Z,44.5
2017-06-04T14:48:05.974Z,44.5
2017-06-04T14:50:08.376Z,44.3
2017-06-04T14:52:05.240Z,44.3
2017-06-04T14:54:06.019Z,44.1
2017-06-04T14:56:08.197Z,44.3
2017-06-04T14:58:05.446Z,44.3
2017-06-04T15:00:05.168Z,44.3
2017-06-04T15:02:06.013Z,44.3
2017-06-04T15:04:05.313Z,44.1
2017-06-04T15:06:05.101Z,44
2017-06-04T15:08:05.988Z,44.2
2017-06-04T15:10:05.834Z,44.2
2017-06-04T15:12:05.548Z,44.3
2017-06-04T15:14:05.456Z,44.5
2017-06-04T15:16:05.209Z,44.8
2017-06-04T15:18:05.741Z,44.7
2017-06-04T15:20:10.596Z,44.2
2017-06-04T15:22:05.357Z,44.2
2017-06-04T15:24:10.134Z,44
2017-06-04T15:26:06.022Z,44
2017-06-04T15:28:06.007Z,44.3
2017-06-04T15:30:05.746Z,44.3
2017-06-04T15:32:05.225Z,44.3
2017-06-04T15:34:06.373Z,44.5
2017-06-04T15:36:10.174Z,44.3
2017-06-04T15:38:05.957Z,44.3
2017-06-04T15:40:05.671Z,44.5
2017-06-04T15:42:06.375Z,44.5
2017-06-04T15:44:07.781Z,44.1
2017-06-04T15:46:05.470Z,44.1
2017-06-04T15:48:05.169Z,44.1
2017-06-04T15:50:05.926Z,44
2017-06-04T15:52:05.187Z,44.2
2017-06-04T15:54:05.924Z,44.1
2017-06-04T15:56:10.842Z,44
2017-06-04T15:58:05.602Z,43.9
2017-06-04T16:00:05.334Z,44
2017-06-04T16:02:05.093Z,43.8
2017-06-04T16:04:05.841Z,43.8
2017-06-04T16:06:08.144Z,43.8
2017-06-04T16:08:08.387Z,43.6
2017-06-04T16:10:08.837Z,43.5
2017-06-04T16:12:08.063Z,43.6
2017-06-04T16:14:05.941Z,43.6
2017-06-04T16:16:05.702Z,43.3
2017-06-04T16:18:05.732Z,43.5
2017-06-04T16:20:08.539Z,43.4
2017-06-04T16:22:05.369Z,43.4
2017-06-04T16:24:10.120Z,43.3
2017-06-04T16:26:05.180Z,43.3
2017-06-04T16:28:08.387Z,43.3
2017-06-04T16:30:05.586Z,43.3
2017-06-04T16:32:08.270Z,43.4
2017-06-04T16:34:06.066Z,43.4
2017-06-04T16:36:05.412Z,43.4
2017-06-04T16:38:05.514Z,43.5
2017-06-04T16:40:05.370Z,43.5
2017-06-04T16:42:05.073Z,43.7
2017-06-04T16:44:05.791Z,43.5
2017-06-04T16:46:05.496Z,43.7
2017-06-04T16:48:05.197Z,43.5
2017-06-04T16:50:06.228Z,43.6
2017-06-04T16:52:05.463Z,43.5
2017-06-04T16:54:05.270Z,43.6
2017-06-04T16:56:06.060Z,43.6
2017-06-04T16:58:11.071Z,43.6
2017-06-04T17:00:05.856Z,43.6
2017-06-04T17:02:05.102Z,43.7
2017-06-04T17:04:05.876Z,43.9
2017-06-04T17:06:05.670Z,43.9
2017-06-04T17:08:05.959Z,43.8
2017-06-04T17:10:05.742Z,43.8
2017-06-04T17:12:05.925Z,44
2017-06-04T17:14:05.660Z,44
2017-06-04T17:16:05.401Z,44
2017-06-04T17:18:12.896Z,44.3
2017-06-04T17:20:05.632Z,44.1
2017-06-04T17:22:05.855Z,44.2
2017-06-04T17:24:05.603Z,44.4
2017-06-04T17:26:05.347Z,44.4
2017-06-04T17:28:07.561Z,44.5
2017-06-04T17:30:05.855Z,44.5
2017-06-04T17:32:05.647Z,44.6
2017-06-04T17:34:05.475Z,44.4
2017-06-04T17:36:05.196Z,44.6
2017-06-04T17:38:06.094Z,44.7
2017-06-04T17:40:08.349Z,44.6
2017-06-04T17:42:05.411Z,44.6
2017-06-04T17:44:05.769Z,44.6
2017-06-04T17:46:05.040Z,44.9
2017-06-04T17:48:05.840Z,44.7
2017-06-04T17:50:05.487Z,44.7
2017-06-04T17:52:05.228Z,44.7
2017-06-04T17:54:05.641Z,44.8
2017-06-04T17:56:05.411Z,45
2017-06-04T17:58:05.269Z,44.9
2017-06-04T18:00:05.606Z,45
2017-06-04T18:02:06.103Z,45
2017-06-04T18:04:07.878Z,45
2017-06-04T18:06:05.610Z,45
2017-06-04T18:08:05.400Z,45
2017-06-04T18:10:05.138Z,45.1
2017-06-04T18:12:10.916Z,45.1
2017-06-04T18:14:05.842Z,45.1
2017-06-04T18:16:05.651Z,45.2
2017-06-04T18:18:05.264Z,45.2
2017-06-04T18:20:05.967Z,45.1
2017-06-04T18:22:13.541Z,45.1
2017-06-04T18:24:07.997Z,45.1
2017-06-04T18:26:05.742Z,45.1
2017-06-04T18:28:08.460Z,45.1
2017-06-04T18:30:05.368Z,45.1
2017-06-04T18:32:13.041Z,45.2
2017-06-04T18:34:05.977Z,45.2
2017-06-04T18:36:07.857Z,45.3
2017-06-04T18:38:08.618Z,45.3
2017-06-04T18:40:05.483Z,45.3
2017-06-04T18:42:07.703Z,45.2
2017-06-04T18:44:05.895Z,45.2
2017-06-04T18:46:06.023Z,45.2
2017-06-04T18:48:05.875Z,45.2
2017-06-04T18:50:05.504Z,45.3
2017-06-04T18:52:05.908Z,45.3
2017-06-04T18:54:05.625Z,45.3
2017-06-04T18:56:07.964Z,45.3
2017-06-04T18:58:06.016Z,45.3
2017-06-04T19:00:08.468Z,45.3
2017-06-04T19:02:07.844Z,45.2
2017-06-04T19:04:08.264Z,45.3
2017-06-04T19:06:07.704Z,45.3
2017-06-04T19:08:10.716Z,45.1
2017-06-04T19:10:06.032Z,45.3
2017-06-04T19:12:05.710Z,45.4
2017-06-04T19:14:08.296Z,45.3
2017-06-04T19:16:06.021Z,45.4
2017-06-04T19:18:05.452Z,45.5
2017-06-04T19:20:05.378Z,45.5
2017-06-04T19:22:07.615Z,45.3
2017-06-04T19:24:07.863Z,45.2
2017-06-04T19:26:08.387Z,45.3
2017-06-04T19:28:05.100Z,45.3
2017-06-04T19:30:05.791Z,45.2
2017-06-04T19:32:06.003Z,45.3
2017-06-04T19:34:06.053Z,45.5
2017-06-04T19:36:05.768Z,45.3
2017-06-04T19:38:05.645Z,45.2
2017-06-04T19:40:05.420Z,45.2
2017-06-04T19:42:05.652Z,45.3
2017-06-04T19:44:08.052Z,45.3
2017-06-04T19:46:05.774Z,45.3
2017-06-04T19:48:05.497Z,45.3
2017-06-04T19:50:05.289Z,45.3
2017-06-04T19:52:05.936Z,45.3
2017-06-04T19:54:06.207Z,45.4
2017-06-04T19:56:05.566Z,45.4
2017-06-04T19:58:05.248Z,45.4
2017-06-04T20:00:06.043Z,45.5
2017-06-04T20:02:08.284Z,45.5
2017-06-04T20:04:08.552Z,45.5
2017-06-04T20:06:08.321Z,45.6
2017-06-04T20:08:07.636Z,45.6
2017-06-04T20:10:05.461Z,45.6
2017-06-04T20:12:05.234Z,45.7
2017-06-04T20:14:08.651Z,45.7
2017-06-04T20:16:09.652Z,45.8
2017-06-04T20:18:05.559Z,45.8
2017-06-04T20:20:05.382Z,45.7
2017-06-04T20:22:05.341Z,45.8
2017-06-04T20:24:05.038Z,45.9
2017-06-04T20:26:10.712Z,45.8
2017-06-04T20:28:10.698Z,45.9
2017-06-04T20:30:05.315Z,45.8
2017-06-04T20:32:05.872Z,45.9
2017-06-04T20:34:05.999Z,45.9
2017-06-04T20:36:05.673Z,45.7
2017-06-04T20:38:13.257Z,45.9
2017-06-04T20:40:05.236Z,45.9
2017-06-04T20:42:07.657Z,45.9
2017-06-04T20:44:05.443Z,45.9
2017-06-04T20:46:05.808Z,45.9
2017-06-04T20:48:06.547Z,45.9
2017-06-04T20:50:05.648Z,45.9
2017-06-04T20:52:05.546Z,45.9
2017-06-04T20:54:08.673Z,45.7
2017-06-04T20:56:05.456Z,45.7
2017-06-04T20:58:05.199Z,45.7
2017-06-04T21:00:05.895Z,45.9
2017-06-04T21:02:05.737Z,45.9
2017-06-04T21:04:05.448Z,45.9
2017-06-04T21:06:05.149Z,45.7
2017-06-04T21:08:05.975Z,45.7
2017-06-04T21:10:05.762Z,45.7
2017-06-04T21:12:08.101Z,45.7
2017-06-04T21:14:08.956Z,45.7
2017-06-04T21:16:05.176Z,45.7
2017-06-04T21:18:05.073Z,45.7
2017-06-04T21:20:05.775Z,45.9
2017-06-04T21:22:05.471Z,45.7
2017-06-04T21:24:05.177Z,45.7
2017-06-04T21:26:05.880Z,45.9
2017-06-04T21:28:05.657Z,45.7
2017-06-04T21:30:05.897Z,45.7
2017-06-04T21:32:05.700Z,45.7
2017-06-04T21:34:05.440Z,45.7
2017-06-04T21:36:05.127Z,45.7
2017-06-04T21:38:05.918Z,45.7
2017-06-04T21:40:05.637Z,45.7
2017-06-04T21:42:05.748Z,45.7
2017-06-04T21:44:05.491Z,45.7
2017-06-04T21:46:07.828Z,45.7
2017-06-04T21:48:05.541Z,45.7
2017-06-04T21:50:05.369Z,45.7
2017-06-04T21:52:05.082Z,45.7
2017-06-04T21:54:05.763Z,45.7
2017-06-04T21:56:05.485Z,45.7
2017-06-04T21:58:05.890Z,45.7
2017-06-04T22:00:08.248Z,45.7
2017-06-04T22:02:06.181Z,45.7
2017-06-04T22:04:06.101Z,45.7
2017-06-04T22:06:05.970Z,45.7
2017-06-04T22:08:05.330Z,45.7
2017-06-04T22:10:05.531Z,45.7
2017-06-04T22:12:05.281Z,45.7
2017-06-04T22:14:07.612Z,45.7
2017-06-04T22:16:07.836Z,45.7
2017-06-04T22:18:05.781Z,45.7
2017-06-04T22:20:08.091Z,45.7
2017-06-04T22:22:05.307Z,45.7
2017-06-04T22:24:05.630Z,45.7
2017-06-04T22:26:06.025Z,45.7
2017-06-04T22:28:05.304Z,45.7
2017-06-04T22:30:15.390Z,45.7
2017-06-04T22:32:05.773Z,45.7
2017-06-04T22:34:05.498Z,45.7
2017-06-04T22:36:05.212Z,45.7
2017-06-04T22:38:05.666Z,45.7
2017-06-04T22:40:05.917Z,45.7
2017-06-04T22:42:05.606Z,45.7
2017-06-04T22:44:06.187Z,45.7
2017-06-04T22:46:06.046Z,45.7
2017-06-04T22:48:05.744Z,45.7
2017-06-04T22:50:05.198Z,45.7
2017-06-04T22:52:08.398Z,45.7
2017-06-04T22:54:10.233Z,45.7
2017-06-04T22:56:06.105Z,45.7
2017-06-04T22:58:05.382Z,45.7
2017-06-04T23:00:15.206Z,45.7
2017-06-04T23:02:06.254Z,45.7
2017-06-04T23:04:13.698Z,45.7
2017-06-04T23:06:05.441Z,45.7
2017-06-04T23:08:05.243Z,45.7
2017-06-04T23:10:05.980Z,45.7
2017-06-04T23:12:05.734Z,45.7
2017-06-04T23:14:05.600Z,45.7
2017-06-04T23:16:05.275Z,45.7
2017-06-04T23:18:08.147Z,45.7
2017-06-04T23:20:05.612Z,45.4
2017-06-04T23:22:07.833Z,45.4
2017-06-04T23:24:05.532Z,45.7
2017-06-04T23:26:05.249Z,45.4
2017-06-04T23:28:05.945Z,45.7
2017-06-04T23:30:05.290Z,45.4
2017-06-04T23:32:05.126Z,45.7
2017-06-04T23:34:08.428Z,45.7
2017-06-04T23:36:05.157Z,45.4
2017-06-04T23:38:08.078Z,45.7
2017-06-04T23:40:08.309Z,45.4
2017-06-04T23:42:06.013Z,45.4
2017-06-04T23:44:05.716Z,45.7
2017-06-04T23:46:07.985Z,45.4
2017-06-04T23:48:05.650Z,45.4
2017-06-04T23:50:06.005Z,45.4
2017-06-04T23:52:05.232Z,45.4
2017-06-04T23:54:05.923Z,45.4
2017-06-04T23:56:05.737Z,45.4
2017-06-04T23:58:05.537Z,45.4
